Estación municipal de Cercs - St.Jordi (Berguedà, )

Consulta los datos en tiempo real de la estación municipal de Cercs - St.Jordi





Hora UTC 19:15
Temperatura 26.7 ºC
Humedad 58.7 %
Presión 1022.8 hPa
Pluja 0.0 mm
Velocidad viento 4.5 km/h
Dirección viento SSW
Radiación solar 0.2 W/m²

Datos diarios 2026-09-04



Hora UTC (invierno +1h; verano +2h)
Temperatura (ºC) Humedad (%) Presión (hPa) Velocidad viento (km/h) Precipitación (mm) Radiación solar (W/m²)
Hora UTC Aire Humedad Presión Vel. Dir. Vel. Max Dir. Intent. máx 5 min. Rad. Sol.
00:05 21.4 73.9 1024.0 1.7 S 1.7 NW 0.0 0.1
00:10 21.3 74.2 1024.0 0.1 ESE 3.4 SSW 0.0 0.1
00:15 21.2 74.8 1023.9 0.0 NNE 0.0 SE 0.0 0.1
00:20 21.1 75.0 1023.9 1.9 SE 6.1 SE 0.0 0.1
00:25 21.0 74.9 1023.9 0.7 SSE 3.4 SE 0.0 0.1
00:30 21.0 74.6 1023.8 0.0 NNE 0.0 SE 0.0 0.1
00:35 21.0 75.1 1023.8 0.0 NNE 0.0 ESE 0.0 0.1
00:40 20.8 75.4 1023.8 1.6 NE 6.1 NNE 0.0 0.1
00:45 20.8 74.8 1023.7 2.2 NE 6.1 NE 0.0 0.1
00:50 20.7 75.4 1023.7 0.0 NNE 0.0 N 0.0 0.1
00:55 20.5 76.4 1023.7 0.0 NNE 0.0 WSW 0.0 0.1
01:00 20.4 77.2 1023.6 0.5 S 6.1 SSE 0.0 0.1
01:05 20.3 77.6 1023.6 0.1 S 3.4 SSE 0.0 0.2
01:10 20.1 78.2 1023.6 0.0 NNE 0.0 SSW 0.0 0.1
01:15 20.0 78.4 1023.6 0.0 NNE 0.0 SSW 0.0 0.1
01:20 20.0 78.3 1023.6 0.0 NE 3.4 NE 0.0 0.1
01:25 20.0 78.4 1023.6 0.0 NNE 0.0 NNE 0.0 0.1
01:30 20.0 78.3 1023.5 0.1 SSW 3.4 SSW 0.0 0.1
01:35 19.9 78.7 1023.5 0.9 SSW 6.1 SSW 0.0 0.1
01:40 19.8 79.1 1023.5 0.0 NNE 0.0 SSW 0.0 0.1
01:45 19.8 79.3 1023.5 0.0 NNE 0.0 W 0.0 0.1
01:50 19.8 79.1 1023.4 0.0 NNE 0.0 W 0.0 0.1
01:55 19.8 78.9 1023.4 0.0 NNE 0.0 SSW 0.0 0.1
02:00 19.8 79.1 1023.3 0.0 NNE 0.0 S 0.0 0.1
02:05 19.8 78.8 1023.3 0.5 N 6.1 N 0.0 0.1
02:10 19.8 78.8 1023.3 0.1 SW 3.4 SW 0.0 0.1
02:15 19.6 79.5 1023.3 0.0 NNE 0.0 WSW 0.0 0.1
02:20 19.8 78.4 1023.3 0.7 NW 6.1 NW 0.0 0.1
02:25 19.9 77.5 1023.2 0.2 NW 3.4 WNW 0.0 0.1
02:30 19.9 77.7 1023.2 0.1 NE 3.4 NE 0.0 0.1
02:35 19.7 78.3 1023.2 0.0 NNE 0.0 WNW 0.0 0.1
02:40 19.6 78.8 1023.2 0.2 NNE 6.1 NE 0.0 0.1
02:45 19.6 78.7 1023.2 0.9 N 6.1 NNW 0.0 0.1
02:50 19.7 77.9 1023.2 0.0 NNE 0.0 W 0.0 0.1
02:55 19.5 78.9 1023.2 0.0 NNE 0.0 SW 0.0 0.2
03:00 19.6 78.7 1023.1 0.0 NNE 0.0 NNW 0.0 0.1
03:05 19.7 78.1 1023.1 2.9 NNE 11.5 NNE 0.0 0.1
03:10 19.9 76.6 1023.1 1.6 N 8.8 NNW 0.0 0.1
03:15 19.8 77.2 1023.1 0.1 NE 6.1 NE 0.0 0.1
03:20 19.8 77.1 1023.1 0.5 S 6.1 SSW 0.0 0.1
03:25 19.6 77.9 1023.1 0.2 NNW 3.4 NNW 0.0 0.1
03:30 19.4 78.6 1023.1 0.9 NW 6.1 NNW 0.0 0.1
03:35 19.5 78.2 1023.0 2.7 SSW 6.1 SSE 0.0 0.1
03:40 19.3 78.9 1023.0 2.8 N 11.5 NE 0.0 0.1
03:45 19.8 75.8 1022.9 3.8 NNE 11.5 N 0.0 0.1
03:50 19.9 75.5 1022.9 6.0 NW 16.9 NW 0.0 0.1
03:55 19.9 74.8 1022.8 4.9 N 14.2 NW 0.0 0.1
04:00 19.9 74.7 1022.8 3.8 NW 11.5 NW 0.0 0.1
04:05 19.7 76.3 1022.8 2.6 NW 14.2 WNW 0.0 0.1
04:10 19.9 74.4 1022.7 5.9 NW 14.2 NW 0.0 0.1
04:15 20.0 73.9 1022.7 7.8 NW 16.9 NNW 0.0 0.1
04:20 20.0 73.5 1022.6 2.3 N 8.8 NNW 0.0 0.1
04:25 19.9 74.0 1022.6 0.3 SSW 3.4 SSW 0.0 0.1
04:30 19.7 75.1 1022.6 1.2 NNE 8.8 NNE 0.0 0.1
04:35 19.8 74.1 1022.6 4.1 NNE 16.9 NNW 0.0 0.1
04:40 19.8 73.4 1022.6 6.2 NW 14.2 NW 0.0 0.1
04:45 19.8 73.2 1022.6 4.9 NW 14.2 N 0.0 0.1
04:50 19.8 73.3 1022.6 6.1 NNW 16.9 WNW 0.0 0.1
04:55 19.8 72.8 1022.5 5.6 NNW 19.6 NW 0.0 0.2
05:00 20.0 72.2 1022.5 3.2 NW 11.5 WNW 0.0 0.4
05:05 19.8 72.8 1022.5 7.2 NW 16.9 NE 0.0 0.9
05:10 19.8 73.0 1022.4 4.9 NNW 14.2 W 0.0 1.7
05:15 19.7 73.5 1022.4 3.7 NW 8.8 NW 0.0 2.8
05:20 19.7 73.1 1022.4 7.1 NW 14.2 NW 0.0 4.2
05:25 19.8 72.3 1022.4 5.7 NW 14.2 NW 0.0 5.6
05:30 19.7 72.8 1022.4 2.9 NW 8.8 NNW 0.0 7.2
05:35 19.5 73.9 1022.4 4.5 NW 14.2 NNW 0.0 8.6
05:40 19.6 73.0 1022.4 4.0 NNW 11.5 NW 0.0 10.1
05:45 19.7 72.6 1022.5 2.0 NNE 11.5 NNE 0.0 11.7
05:50 19.7 72.8 1022.5 3.5 NW 11.5 NNE 0.0 13.4
05:55 19.5 74.2 1022.5 0.4 NNE 3.4 NNE 0.0 15.2
06:00 19.3 75.4 1022.4 0.0 NNE 0.0 N 0.0 16.7
06:05 19.1 75.9 1022.4 3.1 NW 8.8 WNW 0.0 18.1
06:10 19.3 74.4 1022.4 4.7 NNE 14.2 NNE 0.0 21.0
06:15 19.9 72.1 1022.4 3.6 NNE 11.5 NE 0.0 22.2
06:20 19.9 72.6 1022.5 1.6 WNW 8.8 NW 0.0 23.3
06:25 20.0 72.2 1022.5 5.2 N 16.9 NE 0.0 25.0
06:30 20.2 71.7 1022.5 2.7 NNW 11.5 NE 0.0 29.4
06:35 20.4 71.1 1022.5 2.3 NNE 11.5 NE 0.0 25.9
06:40 20.5 70.5 1022.5 4.7 NNE 11.5 ESE 0.0 26.5
06:45 20.7 69.7 1022.4 5.1 NNE 11.5 NE 0.0 27.1
06:50 20.8 69.4 1022.4 5.1 NNE 11.5 ENE 0.0 27.9
06:55 21.0 70.0 1022.4 0.9 NNE 8.8 NNE 0.0 28.6
07:00 21.1 69.3 1022.4 3.6 NNE 8.8 NNE 0.0 29.2
07:05 21.2 68.9 1022.3 5.2 NNE 11.5 ENE 0.0 29.8
07:10 21.3 68.6 1022.3 5.9 NNE 11.5 NNE 0.0 30.9
07:15 21.3 68.8 1022.3 5.3 NE 8.8 NE 0.0 32.0
07:20 21.6 67.6 1022.3 1.8 NNE 11.5 NNE 0.0 38.8
07:25 21.6 67.8 1022.3 3.3 ENE 11.5 NNE 0.0 34.9
07:30 21.7 68.0 1022.3 1.8 ENE 8.8 NNE 0.0 33.3
07:35 21.8 67.8 1022.4 4.2 NE 8.8 NNE 0.0 34.3
07:40 21.8 68.0 1022.4 2.7 ENE 8.8 ENE 0.0 35.7
07:45 22.2 66.7 1022.4 3.4 NE 8.8 NE 0.0 36.0
07:50 22.4 65.9 1022.3 0.3 NE 6.1 ENE 0.0 36.0
07:55 22.6 65.4 1022.3 0.0 NNE 0.0 ENE 0.0 37.9
08:00 22.7 64.5 1022.3 0.0 NNE 0.0 ENE 0.0 38.3
08:05 23.0 63.8 1022.4 0.0 NNE 0.0 NE 0.0 39.6
08:10 23.3 62.8 1022.4 0.0 NNE 0.0 ESE 0.0 75.4
08:15 23.4 62.7 1022.4 0.0 NNE 0.0 E 0.0 134.4
08:20 23.7 62.1 1022.3 0.0 NNE 0.0 N 0.0 169.9
08:25 24.0 61.8 1022.3 0.0 NNE 0.0 ENE 0.0 387.1
08:30 24.3 61.1 1022.4 0.0 NNE 0.0 ENE 0.0 454.7
08:35 24.8 59.7 1022.4 0.0 NNE 0.0 NE 0.0 479.8
08:40 25.1 58.7 1022.5 0.0 NNE 0.0 ENE 0.0 491.0
08:45 25.5 56.8 1022.5 0.0 NNE 0.0 E 0.0 502.7
08:50 26.0 54.7 1022.6 0.0 NNE 0.0 E 0.0 514.2
08:55 26.4 54.0 1022.5 0.0 NNE 0.0 ESE 0.0 525.6
09:00 27.3 52.7 1022.5 0.0 NNE 0.0 SSE 0.0 536.3
09:05 27.9 50.7 1022.5 0.0 NNE 0.0 SE 0.0 547.2
09:10 27.8 50.6 1022.5 0.0 NNE 0.0 ENE 0.0 558.0
09:15 27.9 51.3 1022.5 0.1 SE 3.4 ESE 0.0 568.3
09:20 28.2 50.8 1022.5 0.6 SSE 6.1 SE 0.0 578.6
09:25 28.8 50.2 1022.5 3.0 ESE 8.8 SE 0.0 589.0
09:30 29.1 50.2 1022.5 3.5 SSW 8.8 SSW 0.0 598.5
09:35 29.1 50.1 1022.5 2.3 SSE 8.8 ESE 0.0 607.5
09:40 29.5 49.6 1022.5 0.0 NNE 0.0 ESE 0.0 616.2
09:45 30.2 47.6 1022.5 1.8 SE 8.8 SSE 0.0 625.3
09:50 30.4 47.2 1022.4 2.5 ESE 8.8 E 0.0 633.9
09:55 30.0 48.6 1022.4 1.8 ESE 8.8 ENE 0.0 640.7
10:00 30.2 48.2 1022.4 4.2 ESE 11.5 SE 0.0 647.8
10:05 30.3 48.0 1022.4 1.9 ESE 6.1 E 0.0 654.9
10:10 30.8 46.9 1022.3 1.9 SE 8.8 NE 0.0 661.2
10:15 30.9 46.2 1022.3 2.8 SE 8.8 S 0.0 668.0
10:20 31.6 45.2 1022.3 4.6 SE 11.5 SE 0.0 674.5
10:25 32.0 44.3 1022.3 3.7 SE 8.8 SE 0.0 681.6
10:30 32.2 42.2 1022.2 3.2 SE 11.5 SE 0.0 687.7
10:35 32.0 43.1 1022.1 1.5 SE 8.8 SE 0.0 693.2
10:40 32.6 40.5 1022.1 5.3 SE 14.2 SSE 0.0 700.1
10:45 32.7 40.1 1022.1 3.8 SSE 11.5 SE 0.0 704.6
10:50 32.7 40.3 1022.0 6.9 SE 14.2 NE 0.0 709.0
10:55 33.1 38.5 1022.0 4.5 SE 14.2 SE 0.0 711.3
11:00 33.3 37.2 1022.0 4.0 SE 14.2 ESE 0.0 715.1
11:05 33.3 36.2 1021.9 3.0 ESE 8.8 E 0.0 717.7
11:10 33.2 37.7 1021.9 3.2 E 8.8 ESE 0.0 718.7
11:15 33.1 39.1 1021.9 4.3 ESE 14.2 ESE 0.0 720.1
11:20 33.3 39.4 1021.9 4.1 ESE 11.5 NE 0.0 720.4
11:25 32.7 40.3 1021.9 3.5 ESE 11.5 ENE 0.0 720.5
11:30 33.1 39.8 1021.9 4.4 SE 11.5 SE 0.0 719.3
11:35 33.6 38.5 1021.8 6.1 SE 14.2 SE 0.0 723.0
11:40 33.7 38.4 1021.7 6.2 SSE 14.2 S 0.0 724.6
11:45 34.4 37.1 1021.7 4.0 SE 14.2 SSE 0.0 717.9
11:50 34.6 36.0 1021.7 7.5 SE 14.2 SSE 0.0 715.6
11:55 34.7 35.1 1021.7 5.6 SSE 14.2 S 0.0 716.7
12:00 34.7 34.4 1021.6 5.4 SSE 11.5 SE 0.0 717.3
12:05 35.1 33.3 1021.6 3.7 SSE 11.5 SE 0.0 720.8
12:10 35.5 32.9 1021.7 4.4 SSE 11.5 S 0.0 719.9
12:15 35.3 32.6 1021.6 5.4 SSE 14.2 SSW 0.0 714.7
12:20 35.4 32.0 1021.6 4.3 SE 14.2 SSE 0.0 711.6
12:25 35.8 30.6 1021.5 4.1 SE 11.5 SSE 0.0 710.9
12:30 35.6 30.0 1021.5 4.8 ESE 14.2 ESE 0.0 706.4
12:35 35.3 29.5 1021.5 2.8 ESE 11.5 ESE 0.0 700.3
12:40 35.5 28.3 1021.4 4.2 SE 11.5 SE 0.0 696.3
12:45 35.4 27.6 1021.4 1.9 ESE 11.5 ENE 0.0 694.8
12:50 35.5 26.9 1021.3 4.8 ESE 14.2 ENE 0.0 692.1
12:55 35.7 26.5 1021.3 1.9 SE 8.8 SE 0.0 692.8
13:00 35.7 25.3 1021.3 5.1 ESE 14.2 SE 0.0 685.4
13:05 35.6 25.0 1021.2 4.2 ESE 11.5 ESE 0.0 680.3
13:10 36.0 24.3 1021.2 2.9 E 14.2 ESE 0.0 677.3
13:15 36.0 23.6 1021.1 3.8 ESE 14.2 E 0.0 670.2
13:20 36.4 23.7 1021.1 3.8 E 11.5 SSE 0.0 665.5
13:25 36.4 22.9 1021.1 5.1 ESE 11.5 ESE 0.0 660.6
13:30 35.9 23.3 1021.1 3.3 ESE 11.5 SE 0.0 653.5
13:35 36.1 22.8 1021.1 2.6 E 6.1 NE 0.0 650.0
13:40 36.2 23.1 1021.0 5.2 ESE 14.2 SE 0.0 628.4
13:45 36.3 21.7 1021.0 3.6 E 11.5 ESE 0.0 610.1
13:50 36.3 22.2 1020.9 3.3 E 8.8 ENE 0.0 624.2
13:55 36.5 22.4 1020.9 3.1 SE 14.2 SE 0.0 616.3
14:00 36.8 22.6 1020.9 4.9 SSE 11.5 SE 0.0 608.1
14:05 36.8 22.2 1020.8 3.5 SSE 11.5 SSE 0.0 600.5
14:10 36.7 21.8 1020.8 3.3 SE 8.8 SE 0.0 591.4
14:15 36.6 21.7 1020.8 3.9 ESE 11.5 SSE 0.0 581.4
14:20 36.5 21.6 1020.8 2.2 E 8.8 SE 0.0 573.3
14:25 36.8 21.7 1020.8 4.4 SE 14.2 E 0.0 563.8
14:30 36.9 22.3 1020.8 3.9 SSE 11.5 SSE 0.0 551.4
14:35 37.0 22.9 1020.7 3.3 S 8.8 S 0.0 538.7
14:40 36.9 22.5 1020.7 1.5 S 11.5 S 0.0 529.8
14:45 37.0 22.1 1020.7 3.1 S 8.8 SSW 0.0 521.4
14:50 37.1 23.2 1020.7 3.4 SSE 8.8 SSE 0.0 509.0
14:55 37.1 22.9 1020.7 5.3 SSE 11.5 SSE 0.0 499.1
15:00 37.0 22.6 1020.7 5.2 SSE 11.5 ESE 0.0 485.7
15:05 36.8 22.8 1020.6 6.3 SE 14.2 SE 0.0 471.3
15:10 36.7 23.3 1020.6 6.3 S 14.2 S 0.0 456.7
15:15 36.6 24.3 1020.6 5.4 SSW 11.5 S 0.0 448.4
15:20 36.8 24.8 1020.6 3.1 SSW 8.8 SSW 0.0 437.3
15:25 36.6 27.4 1020.6 4.1 SSW 8.8 SSW 0.0 420.7
15:30 36.2 29.0 1020.6 4.7 S 8.8 S 0.0 412.2
15:35 35.9 29.9 1020.6 4.1 S 11.5 S 0.0 402.2
15:40 35.7 28.8 1020.6 3.4 S 8.8 S 0.0 337.5
15:45 35.2 30.9 1020.6 2.8 SSW 8.8 S 0.0 222.9
15:50 34.5 33.1 1020.6 1.5 SSW 6.1 SSW 0.0 65.0
15:55 33.7 34.6 1020.6 1.1 SW 6.1 SW 0.0 269.9
16:00 33.6 35.5 1020.6 3.1 SSW 6.1 SSW 0.0 322.8
16:05 33.8 34.4 1020.6 2.6 SW 8.8 W 0.0 320.5
16:10 34.0 33.5 1020.6 2.1 WSW 6.1 SW 0.0 296.0
16:15 33.9 35.1 1020.6 2.4 SW 8.8 SW 0.0 234.8
16:20 33.6 35.6 1020.5 1.7 SW 6.1 WSW 0.0 262.1
16:25 33.1 37.1 1020.5 3.5 SSW 6.1 SSW 0.0 231.6
16:30 32.4 37.7 1020.6 3.9 SSW 6.1 SSW 0.0 233.6
16:35 31.9 38.4 1020.6 4.0 SSW 6.1 SSW 0.0 194.1
16:40 31.4 39.0 1020.6 3.9 SSW 6.1 SSW 0.0 127.9
16:45 31.1 39.4 1020.7 4.4 S 8.8 S 0.0 71.7
16:50 30.7 40.5 1020.7 4.6 SSW 8.8 SSW 0.0 58.1
16:55 30.3 40.8 1020.8 4.5 SSW 8.8 SSW 0.0 59.9
17:00 30.0 40.7 1020.8 5.4 SW 8.8 WSW 0.0 68.6
17:05 29.8 40.6 1020.9 4.5 SW 8.8 SW 0.0 58.6
17:10 29.7 40.9 1020.9 4.8 SW 8.8 SSW 0.0 44.2
17:15 29.5 41.7 1021.1 4.2 SW 11.5 W 0.0 36.0
17:20 29.3 41.8 1021.3 2.0 SSW 8.8 SSE 0.0 30.6
17:25 29.8 42.3 1021.4 5.7 SW 14.2 SW 0.0 27.1
17:30 29.9 42.8 1021.4 4.2 SW 14.2 SW 0.0 25.7
17:35 29.7 44.6 1021.5 4.1 SW 8.8 SW 0.0 23.3
17:40 29.7 45.3 1021.6 4.3 SW 8.8 WSW 0.0 21.3
17:45 29.6 46.7 1021.7 5.5 SW 11.5 WSW 0.0 17.3
17:50 29.3 48.3 1021.7 5.8 SW 14.2 WSW 0.0 15.3
17:55 29.4 49.3 1021.8 8.3 SW 16.9 S 0.0 11.5
18:00 29.0 49.9 1021.9 7.3 SSW 14.2 SW 0.0 6.8
18:05 28.8 50.3 1022.0 8.2 SW 16.9 SSW 0.0 4.8
18:10 28.7 49.4 1022.0 6.0 SW 11.5 SSW 0.0 3.2
18:15 28.4 50.3 1022.0 5.6 SW 11.5 SSW 0.0 2.1
18:20 28.0 51.7 1022.1 5.3 SW 8.8 SSW 0.0 1.4
18:25 27.6 53.0 1022.1 4.3 SW 8.8 SW 0.0 0.9
18:30 27.4 54.0 1022.2 4.1 SW 8.8 SW 0.0 0.5
18:35 27.3 55.0 1022.2 4.5 SW 8.8 SW 0.0 0.2
18:40 27.2 55.7 1022.3 4.3 WSW 8.8 SW 0.0 0.2
18:45 27.1 56.3 1022.4 3.1 SW 8.8 SW 0.0 0.1
18:50 27.1 56.5 1022.4 2.2 SW 8.8 SSW 0.0 0.2
18:55 27.1 56.6 1022.5 3.3 WSW 6.1 SW 0.0 0.1
19:00 27.0 57.0 1022.6 4.3 WSW 8.8 WSW 0.0 0.2
19:05 26.9 57.4 1022.6 5.1 WSW 11.5 WSW 0.0 0.2
19:10 26.8 58.2 1022.7 3.7 SSW 6.1 SW 0.0 0.1
19:15 26.7 58.7 1022.8 4.5 SSW 8.8 S 0.0 0.2
Máxima 37.1 79.5 1024.0 8.3 SW 19.6 NW 0.0 724.6
Mínima 19.1 21.6 1020.5
Total 0.0